createdAt,value
2023-04-15T00:03:05.298Z,6.30
2023-04-15T00:07:06.876Z,6.40
2023-04-15T00:11:08.252Z,6.41
2023-04-15T00:15:11.333Z,6.37
2023-04-15T00:19:13.163Z,6.38
2023-04-15T00:23:14.511Z,6.38
2023-04-15T00:27:15.866Z,6.37
2023-04-15T00:31:18.764Z,6.35
2023-04-15T00:35:20.145Z,6.34
2023-04-15T00:39:22.514Z,6.31
2023-04-15T00:43:23.858Z,6.37
2023-04-15T00:47:27.620Z,6.37
2023-04-15T00:51:29.007Z,6.40
2023-04-15T00:55:30.449Z,6.38
2023-04-15T00:59:33.250Z,6.35
2023-04-15T01:03:36.153Z,6.33
2023-04-15T01:07:37.798Z,6.43
2023-04-15T01:11:39.356Z,6.48
2023-04-15T01:15:40.854Z,6.42
2023-04-15T01:19:43.576Z,6.39
2023-04-15T01:23:46.791Z,6.44
2023-04-15T01:27:49.533Z,6.42
2023-04-15T01:31:51.339Z,6.48
2023-04-15T01:35:52.840Z,6.47
2023-04-15T01:39:54.292Z,6.48
2023-04-15T01:43:57.032Z,6.48
2023-04-15T01:47:58.430Z,6.49
2023-04-15T01:51:59.831Z,6.50
2023-04-15T01:56:01.440Z,6.49
2023-04-15T02:00:04.759Z,6.49
2023-04-15T02:04:06.243Z,6.56
2023-04-15T02:08:07.615Z,6.48
2023-04-15T02:12:09.440Z,6.47
2023-04-15T02:16:18.618Z,6.53
2023-04-15T02:20:20.046Z,6.54
2023-04-15T02:24:21.411Z,6.51
2023-04-15T02:28:22.777Z,6.53
2023-04-15T02:32:25.578Z,6.50
2023-04-15T02:36:26.969Z,6.54
2023-04-15T02:40:28.326Z,6.58
2023-04-15T02:44:29.691Z,6.68
2023-04-15T02:48:32.480Z,6.61
2023-04-15T02:52:33.866Z,6.53
2023-04-15T02:56:35.235Z,6.52
2023-04-15T03:00:36.628Z,6.63
2023-04-15T03:04:39.327Z,6.47
2023-04-15T03:08:40.713Z,6.47
2023-04-15T03:12:42.130Z,6.53
2023-04-15T03:16:43.521Z,6.45
2023-04-15T03:20:46.275Z,6.44
2023-04-15T03:24:47.677Z,6.47
2023-04-15T03:28:49.046Z,6.44
2023-04-15T03:32:50.448Z,6.33
2023-04-15T03:36:53.443Z,6.28
2023-04-15T03:40:54.767Z,6.41
2023-04-15T03:44:56.095Z,6.38
2023-04-15T03:48:57.416Z,6.34
2023-04-15T03:53:00.101Z,6.27
2023-04-15T03:57:01.483Z,6.40
2023-04-15T04:01:02.889Z,6.30
2023-04-15T04:05:04.476Z,6.35
2023-04-15T04:09:07.320Z,6.30
2023-04-15T04:13:08.711Z,6.36
2023-04-15T04:17:10.157Z,6.38
2023-04-15T04:21:11.595Z,6.23
2023-04-15T04:25:14.358Z,6.19
2023-04-15T04:29:15.754Z,6.30
2023-04-15T04:33:17.090Z,6.24
2023-04-15T04:37:18.418Z,6.22
2023-04-15T04:41:21.098Z,6.24
2023-04-15T04:45:22.420Z,6.17
2023-04-15T04:49:23.764Z,6.14
2023-04-15T04:53:25.218Z,6.13
2023-04-15T04:57:27.919Z,6.19
2023-04-15T05:01:29.261Z,6.19
2023-04-15T05:05:30.614Z,6.14
2023-04-15T05:09:31.983Z,6.17
2023-04-15T05:13:34.691Z,6.15
2023-04-15T05:17:36.083Z,6.25
2023-04-15T05:21:39.433Z,6.27
2023-04-15T05:25:40.942Z,6.27
2023-04-15T05:29:43.624Z,6.28
2023-04-15T05:33:44.986Z,6.31
2023-04-15T05:37:46.323Z,6.22
2023-04-15T05:41:47.647Z,6.11
2023-04-15T05:45:50.424Z,6.12
2023-04-15T05:49:51.792Z,6.04
2023-04-15T05:53:53.142Z,6.08
2023-04-15T05:57:54.556Z,6.07
2023-04-15T06:01:57.289Z,6.04
2023-04-15T06:05:58.695Z,6.05
2023-04-15T06:10:00.028Z,6.03
2023-04-15T06:14:01.454Z,6.01
2023-04-15T06:18:04.189Z,6.03
2023-04-15T06:22:05.521Z,6.18
2023-04-15T06:26:07.087Z,6.37
2023-04-15T06:30:08.901Z,6.27
2023-04-15T06:34:11.610Z,6.38
2023-04-15T06:38:12.928Z,6.45
2023-04-15T06:42:14.364Z,6.57
2023-04-15T06:46:15.791Z,6.49
2023-04-15T06:50:18.667Z,6.56
2023-04-15T06:54:20.062Z,6.56
2023-04-15T06:58:21.463Z,6.44
2023-04-15T07:02:23.106Z,6.49
2023-04-15T07:06:25.877Z,6.40
2023-04-15T07:10:27.233Z,6.56
2023-04-15T07:14:28.660Z,6.62
2023-04-15T07:18:30.031Z,6.59
2023-04-15T07:22:32.869Z,6.66
2023-04-15T07:26:34.183Z,6.76
2023-04-15T07:30:35.569Z,6.73
2023-04-15T07:34:36.983Z,6.70
2023-04-15T07:38:39.695Z,6.82
2023-04-15T07:42:41.521Z,6.86
2023-04-15T07:46:43.143Z,6.88
2023-04-15T07:50:44.603Z,6.89
2023-04-15T07:54:47.307Z,6.75
2023-04-15T07:58:48.627Z,6.87
2023-04-15T08:02:50.226Z,6.88
2023-04-15T08:06:51.717Z,6.82
2023-04-15T08:10:54.399Z,6.84
2023-04-15T08:14:55.772Z,6.73
2023-04-15T08:18:57.265Z,6.83
2023-04-15T08:22:58.686Z,6.87
2023-04-15T08:27:01.372Z,6.88
2023-04-15T08:31:03.927Z,7.00
2023-04-15T08:35:05.674Z,7.02
2023-04-15T08:39:06.993Z,6.97
2023-04-15T08:43:11.018Z,6.99
2023-04-15T08:47:13.519Z,6.93
2023-04-15T08:51:15.556Z,7.04
2023-04-15T08:55:17.262Z,7.16
2023-04-15T08:59:20.097Z,6.95
2023-04-15T09:03:22.221Z,7.01
2023-04-15T09:07:23.668Z,6.98
2023-04-15T09:11:25.000Z,6.87
2023-04-15T09:15:27.734Z,6.98
2023-04-15T09:19:29.179Z,7.06
2023-04-15T09:23:30.585Z,7.02
2023-04-15T09:27:36.118Z,7.06
2023-04-15T09:31:39.102Z,7.06
2023-04-15T09:35:40.434Z,7.02
2023-04-15T09:39:48.490Z,7.08
2023-04-15T09:43:49.850Z,7.15
2023-04-15T09:47:52.595Z,7.14
2023-04-15T09:52:05.086Z,7.39
2023-04-15T09:56:07.815Z,7.38
2023-04-15T10:00:09.580Z,7.37
2023-04-15T10:04:12.378Z,7.33
2023-04-15T10:08:14.778Z,7.34
2023-04-15T10:12:16.957Z,7.45
2023-04-15T10:16:19.932Z,7.43
2023-04-15T10:20:23.045Z,7.74
2023-04-15T10:24:25.269Z,7.95
2023-04-15T10:28:26.783Z,8.20
2023-04-15T10:32:28.296Z,8.27
2023-04-15T10:36:31.003Z,8.44
2023-04-15T10:40:32.845Z,8.66
2023-04-15T10:44:35.517Z,8.71
2023-04-15T10:48:36.910Z,8.60
2023-04-15T10:52:41.154Z,8.64
2023-04-15T10:56:42.654Z,8.70
2023-04-15T11:00:50.091Z,8.60
2023-04-15T11:04:51.975Z,8.62
2023-04-15T11:08:55.434Z,8.88
2023-04-15T11:12:57.801Z,8.93
2023-04-15T11:16:59.145Z,8.95
2023-04-15T11:21:01.656Z,8.94
2023-04-15T11:25:04.815Z,8.98
2023-04-15T11:29:06.559Z,9.11
2023-04-15T11:33:09.263Z,9.13
2023-04-15T11:37:10.741Z,9.06
2023-04-15T11:41:13.569Z,9.24
2023-04-15T11:45:15.888Z,9.10
2023-04-15T11:49:26.135Z,9.15
2023-04-15T11:53:36.393Z,8.96
2023-04-15T11:57:39.095Z,8.78
2023-04-15T12:01:40.992Z,8.68
2023-04-15T12:06:00.857Z,8.79
2023-04-15T12:10:03.055Z,8.99
2023-04-15T12:14:07.311Z,8.93
2023-04-15T12:18:16.540Z,8.94
2023-04-15T12:22:18.188Z,8.90
2023-04-15T12:26:25.856Z,8.82
2023-04-15T12:30:28.574Z,8.79
2023-04-15T12:34:30.989Z,8.71
2023-04-15T12:38:32.361Z,8.80
2023-04-15T12:42:33.680Z,8.70
2023-04-15T12:46:36.429Z,8.66
2023-04-15T12:50:37.819Z,8.72
2023-04-15T12:54:39.270Z,8.68
2023-04-15T12:58:40.599Z,8.77
2023-04-15T13:02:44.788Z,8.74
2023-04-15T13:06:46.351Z,8.64
2023-04-15T13:10:47.695Z,8.56
2023-04-15T13:14:49.020Z,8.40
2023-04-15T13:18:51.752Z,8.42
2023-04-15T13:22:53.304Z,8.34
2023-04-15T13:26:54.682Z,8.23
2023-04-15T13:30:56.026Z,8.22
2023-04-15T13:34:58.722Z,8.13
2023-04-15T13:39:00.450Z,8.25
2023-04-15T13:43:01.809Z,8.40
2023-04-15T13:47:03.206Z,8.37
2023-04-15T13:51:06.058Z,8.48
2023-04-15T13:55:18.570Z,8.52
2023-04-15T13:59:22.026Z,8.62
2023-04-15T14:03:23.474Z,8.67
2023-04-15T14:07:26.237Z,8.72
2023-04-15T14:11:27.564Z,8.83
2023-04-15T14:15:28.902Z,8.86
2023-04-15T14:19:30.704Z,8.71
2023-04-15T14:23:33.376Z,8.87
2023-04-15T14:27:34.698Z,8.98
2023-04-15T14:31:36.027Z,8.88
2023-04-15T14:35:37.361Z,8.95
2023-04-15T14:39:40.061Z,8.77
2023-04-15T14:43:41.380Z,8.52
2023-04-15T14:47:42.801Z,8.54
2023-04-15T14:51:44.240Z,8.38
2023-04-15T14:55:46.949Z,8.32
2023-04-15T14:59:48.265Z,8.10
2023-04-15T15:03:50.123Z,8.10
2023-04-15T15:07:51.526Z,7.92
2023-04-15T15:11:54.219Z,7.96
2023-04-15T15:15:55.637Z,8.09
2023-04-15T15:19:57.279Z,8.23
2023-04-15T15:23:58.614Z,8.36
2023-04-15T15:28:01.345Z,8.48
2023-04-15T15:32:02.672Z,8.56
2023-04-15T15:36:04.485Z,8.91
2023-04-15T15:40:06.551Z,9.10
2023-04-15T15:44:09.257Z,9.16
2023-04-15T15:48:10.591Z,9.23
2023-04-15T15:52:12.059Z,9.17
2023-04-15T15:56:13.391Z,8.99
2023-04-15T16:00:16.356Z,9.01
2023-04-15T16:04:18.106Z,8.86
2023-04-15T16:08:19.599Z,8.82
2023-04-15T16:12:20.936Z,8.93
2023-04-15T16:16:23.697Z,9.15
2023-04-15T16:20:25.167Z,9.19
2023-04-15T16:24:26.744Z,9.28
2023-04-15T16:28:28.065Z,9.21
2023-04-15T16:32:30.827Z,9.16
2023-04-15T16:36:33.887Z,9.07
2023-04-15T16:40:36.610Z,8.98
2023-04-15T16:44:37.979Z,9.10
2023-04-15T16:48:40.670Z,8.90
2023-04-15T16:52:43.452Z,8.97
2023-04-15T16:56:45.194Z,8.89
2023-04-15T17:00:50.026Z,8.89
2023-04-15T17:04:52.864Z,8.75
2023-04-15T17:08:54.195Z,8.72
2023-04-15T17:12:55.913Z,8.61
2023-04-15T17:16:57.353Z,8.44
2023-04-15T17:21:00.095Z,8.34
2023-04-15T17:25:01.579Z,8.31
2023-04-15T17:29:03.166Z,8.32
2023-04-15T17:33:55.278Z,8.33
2023-04-15T17:37:28.162Z,8.31
2023-04-15T17:41:29.709Z,8.31
2023-04-15T17:45:31.056Z,8.32
2023-04-15T17:49:32.428Z,8.24
2023-04-15T17:53:35.186Z,8.27
2023-04-15T17:57:36.526Z,8.15
2023-04-15T18:01:37.892Z,8.09
2023-04-15T18:05:41.364Z,8.11
2023-04-15T18:09:45.286Z,8.06
2023-04-15T18:13:46.611Z,7.94
2023-04-15T18:17:48.280Z,7.91
2023-04-15T18:21:49.662Z,7.91
2023-04-15T18:25:52.427Z,7.92
2023-04-15T18:29:53.770Z,7.86
2023-04-15T18:33:55.174Z,7.85
2023-04-15T18:37:56.537Z,7.80
2023-04-15T18:41:59.223Z,7.78
2023-04-15T18:46:00.552Z,7.84
2023-04-15T18:50:02.019Z,7.79
2023-04-15T18:54:03.433Z,7.69
2023-04-15T18:58:08.862Z,7.61
2023-04-15T19:02:10.670Z,7.52
2023-04-15T19:06:11.981Z,7.61
2023-04-15T19:10:13.372Z,7.69
2023-04-15T19:14:17.217Z,7.64
2023-04-15T19:18:18.588Z,7.70
2023-04-15T19:22:19.950Z,7.76
2023-04-15T19:26:21.272Z,7.74
2023-04-15T19:30:24.051Z,7.59
2023-04-15T19:34:25.443Z,7.66
2023-04-15T19:38:26.762Z,7.72
2023-04-15T19:42:28.095Z,7.63
2023-04-15T19:46:30.945Z,7.62
2023-04-15T19:50:32.515Z,7.66
2023-04-15T19:54:33.859Z,7.64
2023-04-15T19:58:35.205Z,7.66
2023-04-15T20:02:38.054Z,7.61
2023-04-15T20:06:39.423Z,7.73
2023-04-15T20:10:40.831Z,7.58
2023-04-15T20:14:42.175Z,7.57
2023-04-15T20:18:44.884Z,7.49
2023-04-15T20:22:46.435Z,7.57
2023-04-15T20:26:47.749Z,7.65
2023-04-15T20:30:49.111Z,7.74
2023-04-15T20:34:51.806Z,7.79
2023-04-15T20:38:53.123Z,7.75
2023-04-15T20:42:54.443Z,7.64
2023-04-15T20:46:55.943Z,7.71
2023-04-15T20:50:58.657Z,7.55
2023-04-15T20:55:00.038Z,7.56
2023-04-15T20:59:01.534Z,7.49
2023-04-15T21:03:03.493Z,7.48
2023-04-15T21:07:06.377Z,7.46
2023-04-15T21:11:07.737Z,7.41
2023-04-15T21:15:09.513Z,7.30
2023-04-15T21:19:10.891Z,7.56
2023-04-15T21:23:13.611Z,7.48
2023-04-15T21:27:14.971Z,7.38
2023-04-15T21:31:16.366Z,7.38
2023-04-15T21:35:17.714Z,7.42
2023-04-15T21:39:20.391Z,7.51
2023-04-15T21:43:21.715Z,7.45
2023-04-15T21:47:23.118Z,7.42
2023-04-15T21:51:24.661Z,7.33
2023-04-15T21:55:27.407Z,7.29
2023-04-15T21:59:28.780Z,7.26
2023-04-15T22:03:30.867Z,7.46
2023-04-15T22:07:32.389Z,7.55
2023-04-15T22:11:35.101Z,7.47
2023-04-15T22:15:36.655Z,7.35
2023-04-15T22:19:37.995Z,7.42
2023-04-15T22:23:39.325Z,7.48
2023-04-15T22:27:42.056Z,7.44
2023-04-15T22:31:43.436Z,7.32
2023-04-15T22:35:44.811Z,7.29
2023-04-15T22:39:46.184Z,7.28
2023-04-15T22:43:48.856Z,7.18
2023-04-15T22:47:50.343Z,7.34
2023-04-15T22:51:51.701Z,7.37
2023-04-15T22:55:53.033Z,7.46
2023-04-15T22:59:55.735Z,7.35
2023-04-15T23:04:06.504Z,7.22
2023-04-15T23:08:18.359Z,7.25
2023-04-15T23:12:19.719Z,7.19
2023-04-15T23:16:22.852Z,7.39
2023-04-15T23:20:24.272Z,7.27
2023-04-15T23:24:25.618Z,7.30
2023-04-15T23:28:26.949Z,7.39
2023-04-15T23:32:29.677Z,7.23
2023-04-15T23:36:31.019Z,7.21
2023-04-15T23:40:32.338Z,7.18
2023-04-15T23:44:33.699Z,7.32
2023-04-15T23:48:36.394Z,7.33
2023-04-15T23:52:37.736Z,7.30
2023-04-15T23:56:39.083Z,7.27
